createdAt,value
2019-01-12T00:01:50.983Z,24.17
2019-01-12T00:04:20.702Z,24.23
2019-01-12T00:06:50.289Z,24.26
2019-01-12T00:09:19.944Z,24.23
2019-01-12T00:11:49.512Z,24.26
2019-01-12T00:14:19.134Z,24.18
2019-01-12T00:16:48.773Z,24.22
2019-01-12T00:19:18.383Z,24.16
2019-01-12T00:21:47.942Z,24.19
2019-01-12T00:24:17.473Z,24.18
2019-01-12T00:26:47.082Z,24.16
2019-01-12T00:29:16.811Z,24.20
2019-01-12T00:31:46.367Z,24.29
2019-01-12T00:34:16.007Z,24.30
2019-01-12T00:36:45.611Z,24.32
2019-01-12T00:39:16.134Z,24.30
2019-01-12T00:41:45.841Z,24.25
2019-01-12T00:44:15.480Z,24.23
2019-01-12T00:46:45.006Z,24.23
2019-01-12T00:49:14.557Z,24.21
2019-01-12T00:51:44.096Z,24.22
2019-01-12T00:54:13.644Z,24.20
2019-01-12T00:56:43.391Z,24.23
2019-01-12T00:59:12.858Z,24.13
2019-01-12T01:01:42.405Z,24.15
2019-01-12T01:04:11.996Z,24.22
2019-01-12T01:06:41.585Z,24.17
2019-01-12T01:09:11.122Z,24.20
2019-01-12T01:11:40.731Z,24.17
2019-01-12T01:14:10.319Z,24.14
2019-01-12T01:16:39.859Z,24.17
2019-01-12T01:19:09.450Z,24.17
2019-01-12T01:21:38.944Z,24.15
2019-01-12T01:24:08.462Z,24.17
2019-01-12T01:26:38.082Z,24.21
2019-01-12T01:29:07.644Z,24.19
2019-01-12T01:31:37.194Z,24.18
2019-01-12T01:34:06.764Z,24.09
2019-01-12T01:36:36.273Z,24.04
2019-01-12T01:39:08.666Z,24.12
2019-01-12T01:41:38.180Z,24.16
2019-01-12T01:44:07.758Z,24.12
2019-01-12T01:46:37.305Z,24.19
2019-01-12T01:49:06.804Z,24.20
2019-01-12T01:51:36.391Z,24.18
2019-01-12T01:54:05.909Z,24.17
2019-01-12T01:56:35.437Z,24.18
2019-01-12T01:59:04.990Z,24.16
2019-01-12T02:01:34.642Z,24.22
2019-01-12T02:04:04.134Z,24.13
2019-01-12T02:06:33.619Z,24.12
2019-01-12T02:09:05.035Z,24.05
2019-01-12T02:11:34.573Z,24.10
2019-01-12T02:14:04.117Z,24.13
2019-01-12T02:16:33.725Z,24.20
2019-01-12T02:19:03.327Z,24.18
2019-01-12T02:21:32.852Z,24.23
2019-01-12T02:24:02.413Z,24.20
2019-01-12T02:26:31.984Z,24.19
2019-01-12T02:29:01.552Z,24.12
2019-01-12T02:31:31.035Z,24.17
2019-01-12T02:34:00.576Z,24.22
2019-01-12T02:36:30.119Z,24.07
2019-01-12T02:38:59.653Z,24.13
2019-01-12T02:41:29.207Z,24.13
2019-01-12T02:43:58.702Z,24.06
2019-01-12T02:46:28.185Z,24.15
2019-01-12T02:48:57.831Z,24.19
2019-01-12T02:51:27.434Z,24.16
2019-01-12T02:53:57.046Z,24.19
2019-01-12T02:56:26.649Z,24.19
2019-01-12T02:58:56.216Z,24.22
2019-01-12T03:01:25.760Z,24.16
2019-01-12T03:03:55.365Z,24.11
2019-01-12T03:06:24.949Z,24.11
2019-01-12T03:08:54.483Z,24.13
2019-01-12T03:11:24.097Z,24.12
2019-01-12T03:13:53.556Z,24.15
2019-01-12T03:16:23.094Z,24.12
2019-01-12T03:18:52.681Z,24.15
2019-01-12T03:21:22.349Z,24.15
2019-01-12T03:23:51.926Z,24.12
2019-01-12T03:26:21.300Z,24.15
2019-01-12T03:28:50.933Z,24.22
2019-01-12T03:31:20.541Z,24.13
2019-01-12T03:33:50.283Z,24.14
2019-01-12T03:36:19.862Z,24.22
2019-01-12T03:38:49.342Z,24.21
2019-01-12T03:41:18.888Z,24.09
2019-01-12T03:43:48.488Z,24.08
2019-01-12T03:46:18.067Z,24.14
2019-01-12T03:48:47.596Z,24.17
2019-01-12T03:51:17.176Z,24.17
2019-01-12T03:53:46.682Z,24.15
2019-01-12T03:56:16.230Z,24.15
2019-01-12T03:58:45.821Z,24.16
2019-01-12T04:01:15.438Z,24.22
2019-01-12T04:03:44.906Z,24.17
2019-01-12T04:06:14.421Z,24.19
2019-01-12T04:08:44.058Z,24.18
2019-01-12T04:11:13.568Z,24.14
2019-01-12T04:13:43.122Z,24.19
2019-01-12T04:16:12.684Z,24.20
2019-01-12T04:18:42.293Z,24.15
2019-01-12T04:21:11.858Z,24.07
2019-01-12T04:23:41.408Z,24.17
2019-01-12T04:26:10.916Z,24.18
2019-01-12T04:28:40.489Z,24.19
2019-01-12T04:31:10.126Z,24.23
2019-01-12T04:33:39.603Z,24.22
2019-01-12T04:36:09.139Z,24.29
2019-01-12T04:38:38.748Z,24.15
2019-01-12T04:41:08.326Z,24.26
2019-01-12T04:43:37.979Z,24.32
2019-01-12T04:46:07.679Z,24.26
2019-01-12T04:48:37.324Z,24.31
2019-01-12T04:51:07.002Z,24.20
2019-01-12T04:53:36.643Z,24.25
2019-01-12T04:56:06.321Z,24.26
2019-01-12T04:58:35.859Z,24.25
2019-01-12T05:01:05.543Z,24.24
2019-01-12T05:03:35.252Z,24.22
2019-01-12T05:06:04.950Z,24.28
2019-01-12T05:08:34.578Z,24.19
2019-01-12T05:11:04.336Z,24.17
2019-01-12T05:13:34.099Z,24.22
2019-01-12T05:16:03.715Z,24.26
2019-01-12T05:18:33.419Z,24.20
2019-01-12T05:21:03.065Z,24.23
2019-01-12T05:23:32.736Z,24.23
2019-01-12T05:26:02.445Z,24.18
2019-01-12T05:28:31.983Z,24.07
2019-01-12T05:31:01.552Z,24.00
2019-01-12T05:33:31.191Z,24.10
2019-01-12T05:36:00.873Z,24.08
2019-01-12T05:38:30.487Z,24.21
2019-01-12T05:41:00.140Z,24.20
2019-01-12T05:43:29.819Z,24.27
2019-01-12T05:45:59.396Z,24.11
2019-01-12T05:48:28.920Z,24.07
2019-01-12T05:50:58.630Z,24.16
2019-01-12T05:53:28.563Z,24.24
2019-01-12T05:55:59.279Z,24.20
2019-01-12T05:58:28.783Z,24.27
2019-01-12T06:00:58.411Z,24.37
2019-01-12T06:03:28.107Z,24.43
2019-01-12T06:05:57.609Z,24.48
2019-01-12T06:08:27.326Z,24.47
2019-01-12T06:10:56.928Z,24.42
2019-01-12T06:13:26.580Z,24.39
2019-01-12T06:15:56.258Z,24.41
2019-01-12T06:18:25.864Z,24.34
2019-01-12T06:20:55.567Z,24.42
2019-01-12T06:23:25.199Z,24.33
2019-01-12T06:25:54.883Z,24.27
2019-01-12T06:28:24.600Z,24.27
2019-01-12T06:30:54.141Z,24.48
2019-01-12T06:33:23.824Z,24.47
2019-01-12T06:35:53.478Z,24.39
2019-01-12T06:38:23.148Z,24.40
2019-01-12T06:40:52.944Z,24.36
2019-01-12T06:43:23.336Z,24.33
2019-01-12T06:45:52.904Z,24.34
2019-01-12T06:48:22.597Z,24.36
2019-01-12T06:50:52.377Z,24.33
2019-01-12T06:53:22.023Z,24.36
2019-01-12T06:55:51.659Z,24.28
2019-01-12T06:58:21.341Z,24.43
2019-01-12T07:00:50.939Z,24.56
2019-01-12T07:03:20.574Z,24.55
2019-01-12T07:05:51.132Z,24.60
2019-01-12T07:08:20.802Z,24.41
2019-01-12T07:10:50.418Z,24.34
2019-01-12T07:13:20.118Z,24.42
2019-01-12T07:15:49.732Z,24.42
2019-01-12T07:18:19.445Z,24.39
2019-01-12T07:20:49.161Z,24.36
2019-01-12T07:23:18.784Z,24.50
2019-01-12T07:25:48.459Z,24.49
2019-01-12T07:28:18.093Z,24.48
2019-01-12T07:30:47.774Z,24.53
2019-01-12T07:33:17.420Z,24.43
2019-01-12T07:35:46.985Z,24.43
2019-01-12T07:38:16.609Z,24.35
2019-01-12T07:40:46.212Z,24.52
2019-01-12T07:43:15.929Z,24.52
2019-01-12T07:45:45.524Z,24.54
2019-01-12T07:48:15.139Z,24.52
2019-01-12T07:50:44.955Z,24.42
2019-01-12T07:53:14.766Z,24.48
2019-01-12T07:55:44.481Z,24.52
2019-01-12T07:58:14.129Z,24.51
2019-01-12T08:00:43.809Z,24.55
2019-01-12T08:03:13.543Z,24.55
2019-01-12T08:05:43.131Z,24.54
2019-01-12T08:08:12.834Z,24.51
2019-01-12T08:10:42.525Z,24.53
2019-01-12T08:13:12.134Z,24.57
2019-01-12T08:15:41.747Z,24.56
2019-01-12T08:18:11.251Z,24.61
2019-01-12T08:20:40.959Z,24.60
2019-01-12T08:23:10.564Z,24.49
2019-01-12T08:25:40.295Z,24.41
2019-01-12T08:28:09.782Z,24.50
2019-01-12T08:30:39.309Z,24.54
2019-01-12T08:33:09.015Z,24.60
2019-01-12T08:35:38.615Z,24.61
2019-01-12T08:38:08.325Z,24.57
2019-01-12T08:40:38.052Z,24.43
2019-01-12T08:43:07.541Z,24.45
2019-01-12T08:45:37.164Z,24.44
2019-01-12T08:48:06.760Z,24.45
2019-01-12T08:50:36.482Z,24.44
2019-01-12T08:53:06.118Z,24.46
2019-01-12T08:55:35.937Z,24.49
2019-01-12T08:58:05.609Z,24.51
2019-01-12T09:00:35.216Z,24.50
2019-01-12T09:03:04.825Z,24.46
2019-01-12T09:05:34.453Z,24.48
2019-01-12T09:08:04.149Z,24.47
2019-01-12T09:10:33.767Z,24.55
2019-01-12T09:13:03.393Z,24.57
2019-01-12T09:15:32.932Z,24.55
2019-01-12T09:18:02.487Z,24.56
2019-01-12T09:20:32.162Z,24.60
2019-01-12T09:23:02.855Z,24.58
2019-01-12T09:25:32.437Z,24.53
2019-01-12T09:28:02.138Z,24.49
2019-01-12T09:30:31.859Z,24.56
2019-01-12T09:33:01.569Z,24.59
2019-01-12T09:35:31.346Z,24.63
2019-01-12T09:38:00.919Z,24.61
2019-01-12T09:40:30.613Z,24.59
2019-01-12T09:43:00.214Z,24.60
2019-01-12T09:45:29.957Z,24.57
2019-01-12T09:47:59.544Z,24.50
2019-01-12T09:50:29.266Z,24.59
2019-01-12T09:52:58.836Z,24.63
2019-01-12T09:55:28.346Z,24.67
2019-01-12T09:57:57.919Z,24.68
2019-01-12T10:00:28.002Z,24.67
2019-01-12T10:02:57.550Z,24.66
2019-01-12T10:05:27.094Z,24.69
2019-01-12T10:07:56.654Z,24.71
2019-01-12T10:10:26.274Z,24.76
2019-01-12T10:12:56.004Z,24.78
2019-01-12T10:15:25.721Z,24.72
2019-01-12T10:17:55.322Z,24.79
2019-01-12T10:20:24.852Z,24.83
2019-01-12T10:22:54.469Z,24.87
2019-01-12T10:25:24.067Z,24.96
2019-01-12T10:27:53.657Z,24.88
2019-01-12T10:30:25.124Z,24.87
2019-01-12T10:32:55.106Z,24.90
2019-01-12T10:35:24.775Z,24.88
2019-01-12T10:37:54.370Z,24.85
2019-01-12T10:40:24.075Z,24.89
2019-01-12T10:42:53.774Z,24.88
2019-01-12T10:45:24.650Z,24.93
2019-01-12T10:47:54.948Z,24.91
2019-01-12T10:50:30.589Z,24.91
2019-01-12T10:53:00.139Z,24.93
2019-01-12T10:55:29.818Z,24.95
2019-01-12T10:57:59.944Z,24.98
2019-01-12T11:00:34.891Z,24.97
2019-01-12T11:03:04.773Z,24.99
2019-01-12T11:05:34.346Z,24.98
2019-01-12T11:08:03.933Z,24.98
2019-01-12T11:10:33.597Z,24.94
2019-01-12T11:13:03.208Z,25.01
2019-01-12T11:15:32.997Z,24.99
2019-01-12T11:18:02.517Z,25.01
2019-01-12T11:20:32.243Z,25.04
2019-01-12T11:23:01.701Z,25.02
2019-01-12T11:25:31.218Z,25.00
2019-01-12T11:28:00.849Z,25.00
2019-01-12T11:30:30.471Z,25.05
2019-01-12T11:33:00.062Z,25.09
2019-01-12T11:35:29.690Z,25.06
2019-01-12T11:37:59.254Z,25.11
2019-01-12T11:40:28.798Z,25.08
2019-01-12T11:42:58.401Z,25.03
2019-01-12T11:45:27.921Z,25.04
2019-01-12T11:47:57.512Z,25.08
2019-01-12T11:50:27.095Z,25.12
2019-01-12T11:52:56.642Z,25.09
2019-01-12T11:55:26.129Z,25.11
2019-01-12T11:57:55.769Z,25.11
2019-01-12T12:00:30.042Z,25.05
2019-01-12T12:02:59.907Z,25.12
2019-01-12T12:05:29.589Z,25.22
2019-01-12T12:07:59.236Z,25.26
2019-01-12T12:10:28.797Z,25.27
2019-01-12T12:12:58.544Z,25.23
2019-01-12T12:15:28.140Z,25.19
2019-01-12T12:17:57.849Z,25.28
2019-01-12T12:20:28.615Z,25.27
2019-01-12T12:22:58.172Z,25.31
2019-01-12T12:25:27.900Z,25.33
2019-01-12T12:27:57.632Z,25.34
2019-01-12T12:30:32.964Z,25.40
2019-01-12T12:33:02.564Z,25.39
2019-01-12T12:35:37.654Z,25.35
2019-01-12T12:38:03.518Z,25.32
2019-01-12T12:40:33.233Z,25.33
2019-01-12T12:43:02.875Z,25.47
2019-01-12T12:45:33.921Z,25.44
2019-01-12T12:48:03.561Z,25.29
2019-01-12T12:50:32.884Z,25.40
2019-01-12T12:53:02.325Z,25.38
2019-01-12T12:55:31.771Z,25.44
2019-01-12T12:58:01.166Z,25.46
2019-01-12T13:00:32.458Z,25.40
2019-01-12T13:03:02.094Z,25.47
2019-01-12T13:05:31.665Z,25.47
2019-01-12T13:08:01.410Z,25.49
2019-01-12T13:10:32.248Z,25.53
2019-01-12T13:13:01.841Z,25.46
2019-01-12T13:15:31.542Z,25.50
2019-01-12T13:18:01.173Z,25.59
2019-01-12T13:20:30.870Z,25.55
2019-01-12T13:23:00.576Z,25.51
2019-01-12T13:25:30.165Z,25.57
2019-01-12T13:27:59.920Z,25.53
2019-01-12T13:30:29.394Z,25.53
2019-01-12T13:32:59.054Z,25.52
2019-01-12T13:35:28.715Z,25.51
2019-01-12T13:37:58.235Z,25.56
2019-01-12T13:40:28.958Z,25.56
2019-01-12T13:42:58.692Z,25.56
2019-01-12T13:45:28.284Z,25.54
2019-01-12T13:47:57.809Z,25.56
2019-01-12T13:50:28.454Z,25.48
2019-01-12T13:52:58.235Z,25.46
2019-01-12T13:55:27.944Z,25.42
2019-01-12T13:57:57.553Z,25.42
2019-01-12T14:00:36.066Z,25.45
2019-01-12T14:03:06.972Z,25.41
2019-01-12T14:05:36.502Z,25.43
2019-01-12T14:08:06.461Z,25.42
2019-01-12T14:10:36.361Z,25.45
2019-01-12T14:13:06.589Z,25.38
2019-01-12T14:15:36.164Z,25.35
2019-01-12T14:18:05.899Z,25.32
2019-01-12T14:20:40.368Z,25.35
2019-01-12T14:23:10.731Z,25.31
2019-01-12T14:25:40.458Z,25.23
2019-01-12T14:28:10.168Z,25.37
2019-01-12T14:30:39.868Z,25.33
2019-01-12T14:33:09.761Z,25.33
2019-01-12T14:35:39.383Z,25.31
2019-01-12T14:38:09.109Z,25.26
2019-01-12T14:40:38.817Z,25.28
2019-01-12T14:43:08.537Z,25.28
2019-01-12T14:45:38.249Z,25.31
2019-01-12T14:48:07.921Z,25.26
2019-01-12T14:50:37.459Z,25.24
2019-01-12T14:53:07.173Z,25.27
2019-01-12T14:55:36.896Z,25.26
2019-01-12T14:58:07.027Z,25.22
2019-01-12T15:00:36.520Z,25.21
2019-01-12T15:03:06.315Z,25.23
2019-01-12T15:05:36.281Z,25.21
2019-01-12T15:08:05.971Z,25.18
2019-01-12T15:10:35.572Z,25.14
2019-01-12T15:13:05.288Z,24.95
2019-01-12T15:15:34.886Z,25.07
2019-01-12T15:18:04.514Z,25.13
2019-01-12T15:20:34.194Z,25.12
2019-01-12T15:23:03.769Z,25.11
2019-01-12T15:25:33.481Z,25.15
2019-01-12T15:28:09.181Z,25.14
2019-01-12T15:30:34.877Z,25.13
2019-01-12T15:33:09.057Z,25.10
2019-01-12T15:35:40.123Z,25.17
2019-01-12T15:38:09.877Z,25.16
2019-01-12T15:40:39.386Z,25.16
2019-01-12T15:43:09.095Z,25.17
2019-01-12T15:45:38.776Z,25.16
2019-01-12T15:48:08.511Z,25.17
2019-01-12T15:50:38.193Z,25.19
2019-01-12T15:53:07.832Z,25.10
2019-01-12T15:55:37.508Z,25.11
2019-01-12T15:58:07.198Z,25.14
2019-01-12T16:00:36.828Z,25.21
2019-01-12T16:03:06.332Z,25.10
2019-01-12T16:05:35.739Z,25.09
2019-01-12T16:08:05.494Z,25.03
2019-01-12T16:10:35.040Z,24.97
2019-01-12T16:13:04.652Z,24.98
2019-01-12T16:15:34.394Z,24.83
2019-01-12T16:18:04.045Z,24.81
2019-01-12T16:20:38.814Z,24.87
2019-01-12T16:23:08.728Z,24.77
2019-01-12T16:25:39.006Z,24.87
2019-01-12T16:28:08.563Z,24.91
2019-01-12T16:30:38.299Z,24.89
2019-01-12T16:33:07.884Z,24.82
2019-01-12T16:35:37.497Z,24.78
2019-01-12T16:38:07.128Z,24.75
2019-01-12T16:40:36.924Z,24.75
2019-01-12T16:43:06.432Z,24.71
2019-01-12T16:45:36.060Z,24.78
2019-01-12T16:48:05.728Z,24.91
2019-01-12T16:50:35.360Z,24.87
2019-01-12T16:53:05.055Z,24.89
2019-01-12T16:55:34.872Z,24.95
2019-01-12T16:58:04.402Z,24.88
2019-01-12T17:00:34.083Z,24.93
2019-01-12T17:03:03.686Z,24.90
2019-01-12T17:05:33.348Z,24.98
2019-01-12T17:08:02.965Z,24.94
2019-01-12T17:10:32.564Z,24.94
2019-01-12T17:13:02.199Z,24.99
2019-01-12T17:15:34.932Z,24.97
2019-01-12T17:18:03.160Z,24.96
2019-01-12T17:20:33.080Z,24.93
2019-01-12T17:23:04.091Z,24.92
2019-01-12T17:25:33.869Z,24.86
2019-01-12T17:28:03.491Z,24.86
2019-01-12T17:30:33.187Z,24.80
2019-01-12T17:33:02.897Z,24.86
2019-01-12T17:35:32.497Z,24.87
2019-01-12T17:38:02.515Z,24.82
2019-01-12T17:40:31.988Z,24.86
2019-01-12T17:43:01.614Z,24.82
2019-01-12T17:45:31.376Z,24.84
2019-01-12T17:48:00.974Z,24.82
2019-01-12T17:50:30.555Z,24.77
2019-01-12T17:53:00.267Z,24.78
2019-01-12T17:55:29.941Z,24.76
2019-01-12T17:57:59.489Z,24.72
2019-01-12T18:00:39.603Z,24.69
2019-01-12T18:03:09.257Z,24.67
2019-01-12T18:05:38.855Z,24.63
2019-01-12T18:08:08.428Z,24.76
2019-01-12T18:10:37.971Z,24.72
2019-01-12T18:13:07.580Z,24.87
2019-01-12T18:15:37.163Z,24.90
2019-01-12T18:18:06.687Z,24.77
2019-01-12T18:20:36.427Z,24.80
2019-01-12T18:23:06.041Z,24.76
2019-01-12T18:25:35.956Z,24.77
2019-01-12T18:28:05.653Z,24.79
2019-01-12T18:30:36.555Z,24.81
2019-01-12T18:33:06.230Z,24.69
2019-01-12T18:35:35.847Z,24.77
2019-01-12T18:38:05.462Z,24.81
2019-01-12T18:40:35.061Z,24.86
2019-01-12T18:43:04.776Z,24.81
2019-01-12T18:45:34.503Z,24.76
2019-01-12T18:48:04.409Z,24.76
2019-01-12T18:50:34.124Z,24.82
2019-01-12T18:53:03.702Z,24.81
2019-01-12T18:55:33.444Z,24.78
2019-01-12T18:58:03.066Z,24.79
2019-01-12T19:00:32.694Z,24.79
2019-01-12T19:03:02.348Z,24.79
2019-01-12T19:05:32.007Z,24.79
2019-01-12T19:08:01.569Z,24.85
2019-01-12T19:10:31.309Z,24.85
2019-01-12T19:13:00.827Z,24.86
2019-01-12T19:15:31.618Z,24.81
2019-01-12T19:18:01.278Z,24.81
2019-01-12T19:20:30.919Z,24.85
2019-01-12T19:23:00.621Z,24.85
2019-01-12T19:25:30.328Z,24.81
2019-01-12T19:28:00.030Z,24.81
2019-01-12T19:30:29.575Z,24.85
2019-01-12T19:32:59.237Z,24.88
2019-01-12T19:35:29.031Z,24.82
2019-01-12T19:37:58.544Z,24.89
2019-01-12T19:40:28.274Z,24.85
2019-01-12T19:42:57.918Z,24.86
2019-01-12T19:45:27.560Z,24.81
2019-01-12T19:47:57.189Z,24.82
2019-01-12T19:50:27.479Z,24.73
2019-01-12T19:52:57.673Z,24.84
2019-01-12T19:55:27.352Z,24.76
2019-01-12T19:57:57.056Z,24.90
2019-01-12T20:00:32.159Z,24.87
2019-01-12T20:03:01.835Z,24.88
2019-01-12T20:05:31.556Z,24.85
2019-01-12T20:08:01.243Z,24.85
2019-01-12T20:10:30.833Z,24.85
2019-01-12T20:13:00.444Z,24.85
2019-01-12T20:15:30.173Z,24.87
2019-01-12T20:17:59.806Z,24.83
2019-01-12T20:20:29.371Z,24.81
2019-01-12T20:22:58.980Z,24.89
2019-01-12T20:25:30.116Z,24.88
2019-01-12T20:28:05.565Z,24.90
2019-01-12T20:31:24.943Z,24.93
2019-01-12T20:34:18.586Z,24.90
2019-01-12T20:37:33.953Z,24.86
2019-01-12T20:40:47.248Z,24.88
2019-01-12T20:43:34.898Z,24.90
2019-01-12T20:46:39.193Z,24.88
2019-01-12T20:49:57.791Z,24.82
2019-01-12T20:53:07.123Z,24.84
2019-01-12T20:56:02.746Z,24.80
2019-01-12T20:59:03.569Z,24.84
2019-01-12T21:02:30.419Z,24.80
2019-01-12T21:05:56.019Z,24.84
2019-01-12T21:09:08.970Z,24.88
2019-01-12T21:12:34.762Z,24.82
2019-01-12T21:15:32.358Z,24.87
2019-01-12T21:18:01.958Z,24.83
2019-01-12T21:20:31.506Z,24.76
2019-01-12T21:23:01.180Z,24.75
2019-01-12T21:25:30.801Z,24.73
2019-01-12T21:28:00.581Z,24.77
2019-01-12T21:30:30.322Z,24.74
2019-01-12T21:32:59.814Z,24.75
2019-01-12T21:35:29.436Z,24.71
2019-01-12T21:37:59.026Z,24.69
2019-01-12T21:40:28.685Z,24.72
2019-01-12T21:42:58.357Z,24.68
2019-01-12T21:45:28.055Z,24.68
2019-01-12T21:47:57.878Z,24.67
2019-01-12T21:50:27.567Z,24.68
2019-01-12T21:52:57.083Z,24.74
2019-01-12T21:55:26.880Z,24.74
2019-01-12T21:57:56.404Z,24.72
2019-01-12T22:00:26.116Z,24.74
2019-01-12T22:02:55.639Z,24.72
2019-01-12T22:05:25.237Z,24.79
2019-01-12T22:07:54.850Z,24.70
2019-01-12T22:10:24.352Z,24.72
2019-01-12T22:12:54.131Z,24.67
2019-01-12T22:15:23.786Z,24.72
2019-01-12T22:17:53.385Z,24.68
2019-01-12T22:20:22.998Z,24.71
2019-01-12T22:22:52.606Z,24.73
2019-01-12T22:25:22.321Z,24.73
2019-01-12T22:27:52.025Z,24.67
2019-01-12T22:30:21.478Z,24.67
2019-01-12T22:32:51.148Z,24.76
2019-01-12T22:35:20.783Z,24.73
2019-01-12T22:37:50.400Z,24.68
2019-01-12T22:40:20.777Z,24.66
2019-01-12T22:42:50.392Z,24.73
2019-01-12T22:45:20.024Z,24.69
2019-01-12T22:47:49.715Z,24.75
2019-01-12T22:50:19.375Z,24.74
2019-01-12T22:52:49.031Z,24.74
2019-01-12T22:55:18.747Z,24.71
2019-01-12T22:57:48.454Z,24.75
2019-01-12T23:00:45.250Z,24.76
2019-01-12T23:03:15.019Z,24.82
2019-01-12T23:05:44.731Z,24.70
2019-01-12T23:08:14.334Z,24.68
2019-01-12T23:10:43.869Z,24.73
2019-01-12T23:13:13.549Z,24.76
2019-01-12T23:15:43.188Z,24.77
2019-01-12T23:18:12.863Z,24.68
2019-01-12T23:20:42.609Z,24.75
2019-01-12T23:23:12.290Z,24.65
2019-01-12T23:25:42.013Z,24.61
2019-01-12T23:28:11.597Z,24.64
2019-01-12T23:30:41.402Z,24.56
2019-01-12T23:33:10.915Z,24.59
2019-01-12T23:35:40.480Z,24.49
2019-01-12T23:38:10.247Z,24.64
2019-01-12T23:40:39.990Z,24.71
2019-01-12T23:43:09.558Z,24.69
2019-01-12T23:45:39.187Z,24.65
2019-01-12T23:48:08.985Z,24.66
2019-01-12T23:50:38.596Z,24.68
2019-01-12T23:53:08.306Z,24.67
2019-01-12T23:55:38.034Z,24.67
2019-01-12T23:58:07.731Z,24.67
